createdAt,value
2023-02-28T00:00:29.391Z,62.9
2023-02-28T00:02:29.349Z,63.4
2023-02-28T00:04:29.436Z,63.5
2023-02-28T00:06:29.398Z,63.4
2023-02-28T00:08:29.378Z,62.7
2023-02-28T00:10:29.355Z,63.3
2023-02-28T00:12:29.575Z,63.7
2023-02-28T00:14:29.346Z,63
2023-02-28T00:16:29.426Z,65.2
2023-02-28T00:18:31.404Z,64.1
2023-02-28T00:20:29.355Z,65.4
2023-02-28T00:22:29.358Z,64.8
2023-02-28T00:24:29.373Z,63.5
2023-02-28T00:26:29.379Z,63.8
2023-02-28T00:28:29.350Z,65.6
2023-02-28T00:30:29.349Z,66.3
2023-02-28T00:32:29.356Z,67.2
2023-02-28T00:34:29.361Z,65.5
2023-02-28T00:36:29.368Z,64.6
2023-02-28T00:38:29.347Z,64.6
2023-02-28T00:40:29.325Z,66.8
2023-02-28T00:42:29.358Z,65.4
2023-02-28T00:44:29.321Z,65.6
2023-02-28T00:46:29.391Z,66.7
2023-02-28T00:48:29.328Z,67.2
2023-02-28T00:50:29.322Z,65.9
2023-02-28T00:52:29.360Z,66.3
2023-02-28T00:54:29.338Z,65.8
2023-02-28T00:56:29.314Z,65.3
2023-02-28T00:58:29.308Z,67
2023-02-28T01:00:29.325Z,66.3
2023-02-28T01:02:29.398Z,65.8
2023-02-28T01:04:29.489Z,65.9
2023-02-28T01:06:29.287Z,66.1
2023-02-28T01:08:29.386Z,65.8
2023-02-28T01:10:29.319Z,66.3
2023-02-28T01:12:30.973Z,65.7
2023-02-28T01:14:29.278Z,66
2023-02-28T01:16:29.287Z,66.8
2023-02-28T01:18:29.301Z,66.4
2023-02-28T01:20:29.403Z,66.5
2023-02-28T01:22:29.316Z,67
2023-02-28T01:24:29.275Z,66.8
2023-02-28T01:26:29.272Z,66.8
2023-02-28T01:28:29.282Z,66.9
2023-02-28T01:30:29.317Z,67.3
2023-02-28T01:32:29.244Z,67.1
2023-02-28T01:34:29.273Z,67.7
2023-02-28T01:36:29.262Z,67.4
2023-02-28T01:38:29.275Z,69.7
2023-02-28T01:40:29.290Z,68.9
2023-02-28T01:42:29.272Z,69.7
2023-02-28T01:44:29.251Z,69.1
2023-02-28T01:46:29.293Z,69.1
2023-02-28T01:48:29.261Z,69.3
2023-02-28T01:50:30.546Z,69.7
2023-02-28T01:52:29.267Z,70.7
2023-02-28T01:54:29.269Z,71.5
2023-02-28T01:56:29.296Z,70.2
2023-02-28T01:58:29.249Z,71.8
2023-02-28T02:00:29.239Z,72.4
2023-02-28T02:02:29.484Z,73.5
2023-02-28T02:04:29.241Z,72.2
2023-02-28T02:06:29.332Z,71.1
2023-02-28T02:08:29.264Z,72.2
2023-02-28T02:10:29.344Z,72
2023-02-28T02:12:29.502Z,71.4
2023-02-28T02:14:29.211Z,71.3
2023-02-28T02:16:29.228Z,71.3
2023-02-28T02:18:30.562Z,74.1
2023-02-28T02:20:29.236Z,74
2023-02-28T02:22:29.217Z,73.6
2023-02-28T02:24:29.239Z,73.6
2023-02-28T02:26:29.278Z,73.3
2023-02-28T02:28:29.229Z,73.3
2023-02-28T02:30:29.234Z,73.9
2023-02-28T02:32:29.238Z,75.7
2023-02-28T02:34:29.218Z,75.7
2023-02-28T02:36:29.203Z,75.3
2023-02-28T02:38:29.208Z,75.2
2023-02-28T02:40:29.232Z,74.5
2023-02-28T02:42:29.180Z,73.9
2023-02-28T02:44:29.212Z,74.2
2023-02-28T02:46:29.294Z,74.7
2023-02-28T02:48:29.216Z,76.7
2023-02-28T02:50:29.160Z,75.9
2023-02-28T02:52:29.176Z,74.8
2023-02-28T02:54:30.441Z,75.2
2023-02-28T02:56:29.289Z,77.4
2023-02-28T02:58:29.180Z,78.2
2023-02-28T03:00:29.165Z,78.4
2023-02-28T03:02:29.161Z,77.9
2023-02-28T03:04:29.152Z,77
2023-02-28T03:06:29.178Z,76.8
2023-02-28T03:08:29.271Z,76.1
2023-02-28T03:10:29.131Z,76.4
2023-02-28T03:12:29.497Z,77
2023-02-28T03:14:29.123Z,76.3
2023-02-28T03:16:29.151Z,76.9
2023-02-28T03:18:29.181Z,78.1
2023-02-28T03:20:29.120Z,78.5
2023-02-28T03:22:29.192Z,77.8
2023-02-28T03:24:29.160Z,77.2
2023-02-28T03:26:29.173Z,77
2023-02-28T03:28:29.173Z,77.5
2023-02-28T03:30:29.215Z,78.1
2023-02-28T03:32:29.219Z,76.8
2023-02-28T03:34:29.107Z,76.9
2023-02-28T03:36:29.136Z,79.5
2023-02-28T03:38:29.108Z,80.2
2023-02-28T03:40:29.102Z,79.5
2023-02-28T03:42:29.131Z,78.9
2023-02-28T03:44:29.124Z,78.3
2023-02-28T03:46:29.117Z,80.2
2023-02-28T03:48:29.113Z,80
2023-02-28T03:50:29.091Z,79
2023-02-28T03:52:29.083Z,79
2023-02-28T03:54:29.141Z,79.1
2023-02-28T03:56:29.069Z,78.9
2023-02-28T03:58:29.069Z,78.4
2023-02-28T04:00:29.119Z,79.5
2023-02-28T04:02:29.092Z,80.5
2023-02-28T04:04:29.134Z,80.3
2023-02-28T04:06:29.074Z,80.9
2023-02-28T04:08:29.073Z,80.6
2023-02-28T04:10:29.190Z,80.3
2023-02-28T04:12:29.423Z,80.8
2023-02-28T04:14:29.039Z,81.2
2023-02-28T04:16:35.264Z,80.1
2023-02-28T04:18:29.248Z,79.6
2023-02-28T04:20:29.050Z,80.5
2023-02-28T04:22:29.052Z,80
2023-02-28T04:24:29.141Z,78.9
2023-02-28T04:26:29.080Z,79.1
2023-02-28T04:28:29.089Z,80.1
2023-02-28T04:30:29.108Z,79.4
2023-02-28T04:32:29.138Z,80.5
2023-02-28T04:34:29.202Z,79.5
2023-02-28T04:36:29.315Z,79.3
2023-02-28T04:38:29.070Z,79.2
2023-02-28T04:40:29.062Z,78.8
2023-02-28T04:42:29.051Z,79
2023-02-28T04:44:29.033Z,78.1
2023-02-28T04:46:29.058Z,78.5
2023-02-28T04:48:29.009Z,78.4
2023-02-28T04:50:29.075Z,77.9
2023-02-28T04:52:29.080Z,78
2023-02-28T04:54:29.091Z,77.9
2023-02-28T04:56:29.051Z,77.7
2023-02-28T04:58:29.011Z,78.4
2023-02-28T05:00:29.082Z,79.3
2023-02-28T05:02:29.077Z,80.1
2023-02-28T05:04:29.123Z,79.2
2023-02-28T05:06:29.115Z,79.1
2023-02-28T05:08:29.079Z,78.8
2023-02-28T05:10:29.004Z,79.5
2023-02-28T05:12:29.345Z,79.2
2023-02-28T05:14:28.982Z,79.5
2023-02-28T05:16:29.129Z,79.7
2023-02-28T05:18:29.159Z,78.8
2023-02-28T05:20:28.976Z,79.2
2023-02-28T05:22:28.987Z,79
2023-02-28T05:24:28.998Z,78.5
2023-02-28T05:26:29.038Z,79
2023-02-28T05:28:29.055Z,79.9
2023-02-28T05:30:29.073Z,79.9
2023-02-28T05:32:29.188Z,80.1
2023-02-28T05:34:28.965Z,78.9
2023-02-28T05:36:28.981Z,78.9
2023-02-28T05:38:29.227Z,80
2023-02-28T05:40:28.969Z,79.9
2023-02-28T05:42:29.025Z,80
2023-02-28T05:44:28.934Z,80.3
2023-02-28T05:46:28.967Z,80.1
2023-02-28T05:48:28.974Z,79.4
2023-02-28T05:50:28.969Z,80.6
2023-02-28T05:52:28.976Z,81
2023-02-28T05:54:28.923Z,79.8
2023-02-28T05:56:29.037Z,80.5
2023-02-28T05:58:28.952Z,79.8
2023-02-28T06:00:28.983Z,79.5
2023-02-28T06:02:29.012Z,80.4
2023-02-28T06:04:32.067Z,79.4
2023-02-28T06:06:28.953Z,80.1
2023-02-28T06:08:28.959Z,79.9
2023-02-28T06:10:28.926Z,79.2
2023-02-28T06:12:29.242Z,80
2023-02-28T06:14:28.959Z,79.4
2023-02-28T06:16:29.052Z,79
2023-02-28T06:18:28.928Z,79.1
2023-02-28T06:20:28.902Z,78.9
2023-02-28T06:22:28.926Z,79
2023-02-28T06:24:29.063Z,78.9
2023-02-28T06:26:29.023Z,79.8
2023-02-28T06:28:28.904Z,79.6
2023-02-28T06:30:28.900Z,79.7
2023-02-28T06:32:28.948Z,80.1
2023-02-28T06:34:28.919Z,79.8
2023-02-28T06:36:28.967Z,80.4
2023-02-28T06:38:28.954Z,79.6
2023-02-28T06:40:28.930Z,80.7
2023-02-28T06:42:28.939Z,81.2
2023-02-28T06:44:28.969Z,80.1
2023-02-28T06:46:28.936Z,79.8
2023-02-28T06:48:28.957Z,79.2
2023-02-28T06:50:28.951Z,81.3
2023-02-28T06:52:28.868Z,80.8
2023-02-28T06:54:28.956Z,80.3
2023-02-28T06:56:28.952Z,80.9
2023-02-28T06:58:28.868Z,80.6
2023-02-28T07:00:28.992Z,80.3
2023-02-28T07:02:28.906Z,79.7
2023-02-28T07:04:28.913Z,79.7
2023-02-28T07:06:28.899Z,79.8
2023-02-28T07:08:28.964Z,79.7
2023-02-28T07:10:28.916Z,80.1
2023-02-28T07:12:29.212Z,79.7
2023-02-28T07:14:28.869Z,79.4
2023-02-28T07:16:28.925Z,79.2
2023-02-28T07:18:28.929Z,78.9
2023-02-28T07:20:28.868Z,78.8
2023-02-28T07:22:28.845Z,79.1
2023-02-28T07:24:28.883Z,78.7
2023-02-28T07:26:28.835Z,78.9
2023-02-28T07:28:28.842Z,78.5
2023-02-28T07:30:28.821Z,78.4
2023-02-28T07:32:28.878Z,78.4
2023-02-28T07:34:28.801Z,78.4
2023-02-28T07:36:28.830Z,78.4
2023-02-28T07:38:28.924Z,78.3
2023-02-28T07:40:28.948Z,78.3
2023-02-28T07:42:28.829Z,78.4
2023-02-28T07:44:28.805Z,78.3
2023-02-28T07:46:30.615Z,78.2
2023-02-28T07:48:28.818Z,78.2
2023-02-28T07:50:28.876Z,78.1
2023-02-28T07:52:28.813Z,78.2
2023-02-28T07:54:28.790Z,78.2
2023-02-28T07:56:29.142Z,78
2023-02-28T07:58:28.807Z,78.1
2023-02-28T08:00:28.844Z,78.2
2023-02-28T08:02:28.814Z,78
2023-02-28T08:04:28.868Z,78
2023-02-28T08:06:28.811Z,77.8
2023-02-28T08:08:28.821Z,77.8
2023-02-28T08:10:28.781Z,77.9
2023-02-28T08:12:29.028Z,77.7
2023-02-28T08:14:28.810Z,77.9
2023-02-28T08:16:28.896Z,77.7
2023-02-28T08:18:28.834Z,77.7
2023-02-28T08:20:28.820Z,77.9
2023-02-28T08:22:28.812Z,77.9
2023-02-28T08:24:30.970Z,77.8
2023-02-28T08:26:28.800Z,77.8
2023-02-28T08:28:28.801Z,77.8
2023-02-28T08:30:28.776Z,77.8
2023-02-28T08:32:30.297Z,78
2023-02-28T08:34:28.804Z,77.5
2023-02-28T08:36:28.758Z,77.7
2023-02-28T08:38:29.108Z,77.8
2023-02-28T08:40:28.835Z,78
2023-02-28T08:42:28.796Z,77.9
2023-02-28T08:44:28.741Z,78
2023-02-28T08:46:28.791Z,78
2023-02-28T08:48:28.794Z,77.8
2023-02-28T08:50:28.791Z,77.8
2023-02-28T08:52:28.788Z,77.9
2023-02-28T08:54:28.778Z,78
2023-02-28T08:56:28.793Z,77.8
2023-02-28T08:58:28.820Z,78
2023-02-28T09:00:30.084Z,78
2023-02-28T09:02:28.853Z,78
2023-02-28T09:04:28.731Z,78.5
2023-02-28T09:06:29.184Z,78.1
2023-02-28T09:08:28.724Z,78.1
2023-02-28T09:10:28.734Z,78
2023-02-28T09:12:28.918Z,78
2023-02-28T09:14:28.711Z,77.5
2023-02-28T09:16:28.776Z,76.7
2023-02-28T09:18:28.763Z,76.8
2023-02-28T09:20:28.786Z,76.8
2023-02-28T09:22:28.728Z,74.9
2023-02-28T09:24:28.835Z,75.9
2023-02-28T09:26:32.217Z,75.5
2023-02-28T09:28:28.723Z,76.1
2023-02-28T09:30:28.772Z,75.6
2023-02-28T09:32:28.730Z,75.5
2023-02-28T09:34:28.793Z,75.4
2023-02-28T09:36:37.902Z,75.8
2023-02-28T09:38:28.666Z,75.6
2023-02-28T09:40:28.688Z,75.4
2023-02-28T09:42:28.692Z,75.8
2023-02-28T09:44:28.681Z,76
2023-02-28T09:46:28.762Z,75.9
2023-02-28T09:48:28.688Z,76
2023-02-28T09:50:28.741Z,76.4
2023-02-28T09:52:28.769Z,76.1
2023-02-28T09:54:28.676Z,76.2
2023-02-28T09:56:28.937Z,76.3
2023-02-28T09:58:28.681Z,76.5
2023-02-28T10:00:28.694Z,76.6
2023-02-28T10:02:28.695Z,76.4
2023-02-28T10:04:28.716Z,76.2
2023-02-28T10:06:28.691Z,76.3
2023-02-28T10:08:28.632Z,75.9
2023-02-28T10:10:28.654Z,76.4
2023-02-28T10:12:28.690Z,76.2
2023-02-28T10:14:28.682Z,76
2023-02-28T10:16:28.961Z,76
2023-02-28T10:18:28.678Z,76.2
2023-02-28T10:20:28.687Z,76.2
2023-02-28T10:22:28.721Z,76.5
2023-02-28T10:24:28.677Z,76.7
2023-02-28T10:26:28.922Z,76.6
2023-02-28T10:28:28.667Z,76.9
2023-02-28T10:30:28.637Z,76.9
2023-02-28T10:32:28.666Z,76.8
2023-02-28T10:34:28.686Z,76.5
2023-02-28T10:36:28.912Z,76.4
2023-02-28T10:38:28.686Z,76.5
2023-02-28T10:40:28.668Z,76.4
2023-02-28T10:42:28.628Z,76.2
2023-02-28T10:44:28.630Z,76.3
2023-02-28T10:46:28.957Z,76
2023-02-28T10:48:28.634Z,76.1
2023-02-28T10:50:28.719Z,75.9
2023-02-28T10:52:28.631Z,76
2023-02-28T10:54:28.658Z,75.8
2023-02-28T10:56:28.616Z,75.8
2023-02-28T10:58:28.615Z,76.1
2023-02-28T11:00:28.620Z,76.2
2023-02-28T11:02:28.598Z,75.7
2023-02-28T11:04:28.619Z,75.8
2023-02-28T11:06:28.954Z,75.7
2023-02-28T11:08:28.696Z,75.8
2023-02-28T11:10:28.586Z,76
2023-02-28T11:12:28.752Z,76.1
2023-02-28T11:14:28.602Z,75.6
2023-02-28T11:16:28.594Z,75.6
2023-02-28T11:18:31.028Z,75.7
2023-02-28T11:20:29.313Z,75.9
2023-02-28T11:22:28.592Z,76
2023-02-28T11:24:28.603Z,76.2
2023-02-28T11:26:31.905Z,76.2
2023-02-28T11:28:30.896Z,76.2
2023-02-28T11:30:31.244Z,76.3
2023-02-28T11:32:34.395Z,76.4
2023-02-28T11:34:28.661Z,76.6
2023-02-28T11:36:29.624Z,76.6
2023-02-28T11:38:28.865Z,76.7
2023-02-28T11:40:32.768Z,76.9
2023-02-28T11:42:28.738Z,76.9
2023-02-28T11:44:28.565Z,76.7
2023-02-28T11:46:28.749Z,76.6
2023-02-28T11:48:28.570Z,76.7
2023-02-28T11:50:28.583Z,76.7
2023-02-28T11:52:28.574Z,76.8
2023-02-28T11:54:28.584Z,76.8
2023-02-28T11:56:28.565Z,76.7
2023-02-28T11:58:28.752Z,76.8
2023-02-28T12:00:28.756Z,76.8
2023-02-28T12:02:28.704Z,76.8
2023-02-28T12:04:29.933Z,76.8
2023-02-28T12:06:28.589Z,76.7
2023-02-28T12:08:28.704Z,76.7
2023-02-28T12:10:28.601Z,76.6
2023-02-28T12:12:28.715Z,76.5
2023-02-28T12:14:28.525Z,76.5
2023-02-28T12:16:28.680Z,76.2
2023-02-28T12:18:39.015Z,76.4
2023-02-28T12:20:29.821Z,76.5
2023-02-28T12:22:31.051Z,76.1
2023-02-28T12:24:28.706Z,75.9
2023-02-28T12:26:30.096Z,76
2023-02-28T12:28:28.639Z,76.1
2023-02-28T12:30:31.225Z,76.2
2023-02-28T12:32:28.812Z,76.2
2023-02-28T12:34:28.570Z,75.8
2023-02-28T12:36:28.682Z,75.7
2023-02-28T12:38:33.124Z,75.7
2023-02-28T12:40:29.818Z,75.7
2023-02-28T12:42:29.610Z,75.6
2023-02-28T12:44:28.615Z,75
2023-02-28T12:46:28.602Z,74.9
2023-02-28T12:48:28.611Z,74.9
2023-02-28T12:50:28.602Z,74.6
2023-02-28T12:52:28.627Z,75.1
2023-02-28T12:54:29.687Z,75
2023-02-28T12:56:29.334Z,74.6
2023-02-28T12:58:28.552Z,74.6
2023-02-28T13:00:31.116Z,74.2
2023-02-28T13:02:30.125Z,74.1
2023-02-28T13:04:28.514Z,74.3
2023-02-28T13:06:29.600Z,74.2
2023-02-28T13:08:28.619Z,73.8
2023-02-28T13:10:28.593Z,74.1
2023-02-28T13:12:28.675Z,74.4
2023-02-28T13:14:31.260Z,74.7
2023-02-28T13:16:28.627Z,74.6
2023-02-28T13:18:28.505Z,74.9
2023-02-28T13:20:28.537Z,75
2023-02-28T13:22:28.528Z,75.1
2023-02-28T13:24:32.771Z,75.1
2023-02-28T13:26:28.474Z,75.1
2023-02-28T13:28:28.686Z,75.3
2023-02-28T13:30:31.106Z,75.4
2023-02-28T13:32:28.544Z,75.5
2023-02-28T13:34:28.601Z,74.3
2023-02-28T13:36:28.648Z,74.6
2023-02-28T13:38:28.614Z,74.5
2023-02-28T13:40:29.803Z,74.4
2023-02-28T13:42:28.458Z,74.3
2023-02-28T13:44:28.716Z,74.2
2023-02-28T13:46:28.576Z,73.7
2023-02-28T13:48:29.604Z,73.6
2023-02-28T13:50:28.614Z,73.4
2023-02-28T13:52:28.454Z,73.8
2023-02-28T13:54:28.405Z,73.6
2023-02-28T13:56:28.808Z,72.9
2023-02-28T13:58:28.492Z,73.3
2023-02-28T14:00:28.527Z,73.5
2023-02-28T14:02:28.483Z,73.4
2023-02-28T14:04:30.907Z,73.1
2023-02-28T14:06:28.928Z,73
2023-02-28T14:08:29.468Z,72.8
2023-02-28T14:10:28.480Z,72.4
2023-02-28T14:12:31.234Z,72.7
2023-02-28T14:14:32.564Z,73
2023-02-28T14:16:30.088Z,72.8
2023-02-28T14:18:28.395Z,73.1
2023-02-28T14:20:29.573Z,73
2023-02-28T14:22:28.734Z,72.7
2023-02-28T14:24:28.600Z,72.5
2023-02-28T14:26:28.572Z,72.6
2023-02-28T14:28:28.373Z,72.6
2023-02-28T14:30:28.435Z,72.6
2023-02-28T14:32:31.215Z,72.1
2023-02-28T14:34:28.490Z,71.8
2023-02-28T14:36:28.782Z,71.8
2023-02-28T14:38:29.591Z,72
2023-02-28T14:40:28.443Z,72
2023-02-28T14:42:28.404Z,71.3
2023-02-28T14:44:28.475Z,70.4
2023-02-28T14:46:28.859Z,70.8
2023-02-28T14:48:28.385Z,71.1
2023-02-28T14:50:29.490Z,70.6
2023-02-28T14:52:29.307Z,70.2
2023-02-28T14:54:28.467Z,70.9
2023-02-28T14:56:28.853Z,70.7
2023-02-28T14:58:28.508Z,70.1
2023-02-28T15:00:32.651Z,70.1
2023-02-28T15:02:29.957Z,70.3
2023-02-28T15:04:28.433Z,69.7
2023-02-28T15:06:31.531Z,68.6
2023-02-28T15:08:28.433Z,68.4
2023-02-28T15:10:28.633Z,68.6
2023-02-28T15:12:28.611Z,68.2
2023-02-28T15:14:28.386Z,67.9
2023-02-28T15:16:28.659Z,67.7
2023-02-28T15:18:28.329Z,68.2
2023-02-28T15:20:30.952Z,67.7
2023-02-28T15:22:28.469Z,67.1
2023-02-28T15:24:28.544Z,67.3
2023-02-28T15:26:28.622Z,66.3
2023-02-28T15:28:28.360Z,65.8
2023-02-28T15:30:28.484Z,64.9
2023-02-28T15:32:28.561Z,65.7
2023-02-28T15:34:33.553Z,64.7
2023-02-28T15:36:28.600Z,64.6
2023-02-28T15:38:28.388Z,65.8
2023-02-28T15:40:32.724Z,64.1
2023-02-28T15:42:29.830Z,64.4
2023-02-28T15:44:29.835Z,65.2
2023-02-28T15:46:28.289Z,64.4
2023-02-28T15:48:28.390Z,64.1
2023-02-28T15:50:28.667Z,63.7
2023-02-28T15:52:28.301Z,62.5
2023-02-28T15:54:28.532Z,62
2023-02-28T15:56:28.305Z,61.5
2023-02-28T15:58:29.575Z,62.7
2023-02-28T16:00:28.438Z,61.6
2023-02-28T16:02:29.449Z,63.1
2023-02-28T16:04:28.280Z,62.6
2023-02-28T16:06:28.364Z,62.5
2023-02-28T16:08:29.630Z,61.6
2023-02-28T16:10:28.412Z,62.3
2023-02-28T16:12:28.382Z,63.1
2023-02-28T16:14:28.356Z,63.7
2023-02-28T16:16:28.360Z,62.7
2023-02-28T16:18:39.035Z,62.8
2023-02-28T16:20:29.826Z,63
2023-02-28T16:22:28.266Z,62.9
2023-02-28T16:24:28.363Z,62.4
2023-02-28T16:26:28.357Z,61.7
2023-02-28T16:28:28.598Z,61.1
2023-02-28T16:30:28.374Z,62.6
2023-02-28T16:32:28.357Z,61.8
2023-02-28T16:34:28.256Z,60.7
2023-02-28T16:36:28.268Z,60.6
2023-02-28T16:38:28.274Z,61.6
2023-02-28T16:40:28.268Z,61.2
2023-02-28T16:42:29.700Z,61.8
2023-02-28T16:44:28.326Z,61.2
2023-02-28T16:46:28.375Z,60.1
2023-02-28T16:48:28.269Z,60
2023-02-28T16:50:28.291Z,61.1
2023-02-28T16:52:28.427Z,61
2023-02-28T16:54:28.392Z,61.6
2023-02-28T16:56:28.451Z,60.1
2023-02-28T16:58:28.250Z,60.1
2023-02-28T17:00:29.419Z,59.8
2023-02-28T17:02:28.417Z,59.9
2023-02-28T17:04:28.236Z,60.1
2023-02-28T17:06:28.576Z,59.6
2023-02-28T17:08:28.255Z,58.7
2023-02-28T17:10:28.241Z,58.7
2023-02-28T17:12:28.245Z,60
2023-02-28T17:13:39.084Z,60
2023-02-28T17:14:00.797Z,60.3
2023-02-28T17:15:11.994Z,60.3
2023-02-28T17:17:13.107Z,58.8
2023-02-28T17:19:11.777Z,59.1
2023-02-28T17:21:11.738Z,57.5
2023-02-28T17:23:13.157Z,58.9
2023-02-28T17:25:11.795Z,57
2023-02-28T17:27:12.027Z,57.5
2023-02-28T17:29:11.935Z,56.1
2023-02-28T17:31:11.860Z,56.4
2023-02-28T17:33:11.764Z,57.2
2023-02-28T17:35:11.775Z,56.8
2023-02-28T17:37:13.124Z,55
2023-02-28T17:39:11.907Z,56.2
2023-02-28T17:41:12.844Z,56.3
2023-02-28T17:43:11.778Z,56.1
2023-02-28T17:45:11.837Z,55.3
2023-02-28T17:47:11.888Z,55.9
2023-02-28T17:49:11.825Z,56.1
2023-02-28T17:51:11.815Z,56.3
2023-02-28T17:53:13.207Z,56.3
2023-02-28T17:55:11.930Z,55.6
2023-02-28T17:57:11.938Z,55.1
2023-02-28T17:59:11.839Z,55.6
2023-02-28T18:01:11.851Z,55.7
2023-02-28T18:03:11.765Z,56
2023-02-28T18:05:11.813Z,55.9
2023-02-28T18:07:11.808Z,56.5
2023-02-28T18:09:11.749Z,55.9
2023-02-28T18:11:17.632Z,55.5
2023-02-28T18:13:16.355Z,55.9
2023-02-28T18:15:11.680Z,54.9
2023-02-28T18:17:11.697Z,55.9
2023-02-28T18:19:11.745Z,56
2023-02-28T18:21:11.808Z,55.5
2023-02-28T18:23:11.650Z,55.6
2023-02-28T18:25:11.754Z,55.4
2023-02-28T18:27:11.684Z,55.1
2023-02-28T18:29:11.987Z,56.1
2023-02-28T18:31:11.788Z,54.8
2023-02-28T18:33:11.836Z,54.9
2023-02-28T18:35:11.861Z,55
2023-02-28T18:37:11.915Z,55
2023-02-28T18:39:11.700Z,55.5
2023-02-28T18:41:11.690Z,55.5
2023-02-28T18:43:11.744Z,55.3
2023-02-28T18:45:12.977Z,55.5
2023-02-28T18:47:11.723Z,55.4
2023-02-28T18:49:11.777Z,54.6
2023-02-28T18:51:11.828Z,55.2
2023-02-28T18:53:11.764Z,54.2
2023-02-28T18:55:11.655Z,53.2
2023-02-28T18:57:11.914Z,53.4
2023-02-28T18:59:11.620Z,52.3
2023-02-28T19:01:11.746Z,53.8
2023-02-28T19:03:11.753Z,52.4
2023-02-28T19:05:11.718Z,51.7
2023-02-28T19:07:11.764Z,52
2023-02-28T19:09:11.851Z,50.6
2023-02-28T19:11:11.747Z,49.6
2023-02-28T19:13:11.616Z,49.6
2023-02-28T19:15:11.646Z,50.8
2023-02-28T19:17:11.765Z,51.2
2023-02-28T19:19:11.769Z,50
2023-02-28T19:21:11.654Z,52.2
2023-02-28T19:23:13.558Z,53.1
2023-02-28T19:25:11.774Z,53.1
2023-02-28T19:27:13.026Z,52.1
2023-02-28T19:29:11.776Z,53
2023-02-28T19:31:13.012Z,53.9
2023-02-28T19:33:11.573Z,52.6
2023-02-28T19:35:11.683Z,53.5
2023-02-28T19:37:11.658Z,54.2
2023-02-28T19:39:13.064Z,53.4
2023-02-28T19:41:11.793Z,53.3
2023-02-28T19:43:11.573Z,53.5
2023-02-28T19:45:11.613Z,53.5
2023-02-28T19:47:11.546Z,53
2023-02-28T19:49:11.578Z,53
2023-02-28T19:51:14.057Z,53.7
2023-02-28T19:53:11.566Z,53.9
2023-02-28T19:55:11.663Z,53.1
2023-02-28T19:57:11.570Z,53.1
2023-02-28T19:59:16.880Z,53.4
2023-02-28T20:01:11.663Z,53.4
2023-02-28T20:03:15.851Z,53.6
2023-02-28T20:05:11.621Z,53.4
2023-02-28T20:07:11.554Z,53.1
2023-02-28T20:07:59.113Z,53.1
2023-02-28T20:09:11.725Z,53.6
2023-02-28T20:11:11.640Z,53.8
2023-02-28T20:13:11.821Z,53.9
2023-02-28T20:15:11.645Z,54.3
2023-02-28T20:17:11.543Z,53.6
2023-02-28T20:19:11.596Z,53.8
2023-02-28T20:21:11.543Z,53.5
2023-02-28T20:23:11.604Z,53.5
2023-02-28T20:25:11.637Z,53.8
2023-02-28T20:27:13.385Z,53.2
2023-02-28T20:29:12.632Z,52.7
2023-02-28T20:31:11.686Z,53.7
2023-02-28T20:33:11.547Z,53
2023-02-28T20:35:12.866Z,53.3
2023-02-28T20:37:11.577Z,52.7
2023-02-28T20:39:11.693Z,53.3
2023-02-28T20:41:11.763Z,53
2023-02-28T20:43:12.961Z,52.3
2023-02-28T20:45:11.604Z,52.5
2023-02-28T20:47:11.591Z,52.8
2023-02-28T20:49:11.639Z,53.4
2023-02-28T20:51:11.534Z,53.6
2023-02-28T20:53:11.530Z,53.7
2023-02-28T20:55:13.623Z,53.9
2023-02-28T20:57:14.124Z,52.3
2023-02-28T20:59:11.706Z,52.7
2023-02-28T21:01:13.707Z,53.4
2023-02-28T21:03:11.626Z,53.4
2023-02-28T21:05:11.568Z,53.7
2023-02-28T21:07:11.565Z,53.3
2023-02-28T21:09:11.850Z,53.5
2023-02-28T21:11:12.306Z,54
2023-02-28T21:13:11.740Z,53.3
2023-02-28T21:15:12.385Z,53.5
2023-02-28T21:17:11.626Z,53
2023-02-28T21:19:12.897Z,53.2
2023-02-28T21:21:11.607Z,53.5
2023-02-28T21:23:13.445Z,53.6
2023-02-28T21:25:11.553Z,54.4
2023-02-28T21:27:11.512Z,54.4
2023-02-28T21:29:11.962Z,54.5
2023-02-28T21:31:14.212Z,55.1
2023-02-28T21:33:16.122Z,54.8
2023-02-28T21:35:11.821Z,55.2
2023-02-28T21:37:13.993Z,55.5
2023-02-28T21:39:11.465Z,55.3
2023-02-28T21:41:11.717Z,55.6
2023-02-28T21:43:12.764Z,55.8
2023-02-28T21:45:11.535Z,55.2
2023-02-28T21:47:11.502Z,54.7
2023-02-28T21:49:11.587Z,55.2
2023-02-28T21:51:11.563Z,55.6
2023-02-28T21:53:11.482Z,55.8
2023-02-28T21:55:22.166Z,54.3
2023-02-28T21:57:13.510Z,54.1
2023-02-28T21:59:11.479Z,54.1
2023-02-28T22:01:20.006Z,54.7
2023-02-28T22:03:11.540Z,53.9
2023-02-28T22:05:11.550Z,54
2023-02-28T22:07:11.576Z,53.5
2023-02-28T22:09:11.496Z,53.3
2023-02-28T22:11:11.512Z,54.4
2023-02-28T22:13:11.651Z,54.2
2023-02-28T22:15:14.443Z,54.1
2023-02-28T22:17:14.082Z,53.7
2023-02-28T22:19:12.597Z,54.7
2023-02-28T22:21:11.657Z,54.9
2023-02-28T22:23:12.161Z,54.3
2023-02-28T22:25:11.744Z,54.8
2023-02-28T22:27:11.511Z,55
2023-02-28T22:29:11.386Z,54.8
2023-02-28T22:31:13.462Z,54.6
2023-02-28T22:33:11.421Z,54.8
2023-02-28T22:35:11.385Z,54.8
2023-02-28T22:37:11.502Z,55.4
2023-02-28T22:39:12.700Z,55.7
2023-02-28T22:41:11.417Z,55.8
2023-02-28T22:43:12.615Z,56
2023-02-28T22:45:11.616Z,56.4
2023-02-28T22:47:11.478Z,56.5
2023-02-28T22:49:12.132Z,56.7
2023-02-28T22:51:12.571Z,56.8
2023-02-28T22:53:12.815Z,57
2023-02-28T22:55:11.368Z,57
2023-02-28T22:57:11.483Z,57.2
2023-02-28T22:59:11.374Z,57.3
2023-02-28T23:01:11.400Z,57.4
2023-02-28T23:03:11.422Z,57.6
2023-02-28T23:05:11.367Z,57.6
2023-02-28T23:07:11.420Z,57.8
2023-02-28T23:09:11.392Z,58.5
2023-02-28T23:11:11.358Z,58.3
2023-02-28T23:13:11.369Z,58.4
2023-02-28T23:15:11.348Z,58.6
2023-02-28T23:17:11.374Z,58.5
2023-02-28T23:19:11.343Z,58.5
2023-02-28T23:21:11.348Z,58.9
2023-02-28T23:23:11.385Z,59
2023-02-28T23:25:11.351Z,58.9
2023-02-28T23:27:11.387Z,58.8
2023-02-28T23:29:11.529Z,59.2
2023-02-28T23:31:11.346Z,59.6
2023-02-28T23:33:11.348Z,60.5
2023-02-28T23:35:11.282Z,60.7
2023-02-28T23:37:11.381Z,60
2023-02-28T23:39:11.342Z,60.3
2023-02-28T23:41:11.353Z,60.9
2023-02-28T23:43:11.340Z,60.2
2023-02-28T23:45:11.298Z,60.2
2023-02-28T23:47:11.275Z,60.3
2023-02-28T23:49:11.287Z,60.5
2023-02-28T23:51:11.347Z,60.3
2023-02-28T23:53:11.310Z,60.8
2023-02-28T23:55:11.268Z,60.9
2023-02-28T23:57:11.264Z,60.5
2023-02-28T23:59:11.275Z,60.4
